sensor_id;sensor_type;location;lat;lon;timestamp;pressure;altitude;pressure_sealevel;temperature;humidity
25610;BME280;13479;49.044;8.716;2023-03-15T05:02:46;99199.34;;;0.25;88.88
25610;BME280;13479;49.044;8.716;2023-03-15T05:05:19;99194.34;;;0.19;88.61
25610;BME280;13479;49.044;8.716;2023-03-15T05:07:45;99182.09;;;0.21;89.08
25610;BME280;13479;49.044;8.716;2023-03-15T05:10:10;99167.81;;;0.30;88.81
25610;BME280;13479;49.044;8.716;2023-03-15T05:12:35;99172.94;;;0.32;89.09
25610;BME280;13479;49.044;8.716;2023-03-15T05:15:01;99170.22;;;0.35;89.16
25610;BME280;13479;49.044;8.716;2023-03-15T05:17:26;99176.47;;;0.30;89.12
25610;BME280;13479;49.044;8.716;2023-03-15T05:19:52;99179.09;;;0.30;89.37
25610;BME280;13479;49.044;8.716;2023-03-15T05:22:17;99176.34;;;0.34;89.67
25610;BME280;13479;49.044;8.716;2023-03-15T05:24:43;99178.44;;;0.25;89.74
25610;BME280;13479;49.044;8.716;2023-03-15T05:27:09;99193.00;;;0.31;89.57
25610;BME280;13479;49.044;8.716;2023-03-15T05:29:36;99186.41;;;0.22;89.42
25610;BME280;13479;49.044;8.716;2023-03-15T05:32:01;99183.19;;;0.15;89.67
25610;BME280;13479;49.044;8.716;2023-03-15T05:34:29;99189.38;;;0.13;89.39
25610;BME280;13479;49.044;8.716;2023-03-15T05:36:56;99190.28;;;0.12;89.41
25610;BME280;13479;49.044;8.716;2023-03-15T05:39:22;99204.00;;;0.17;89.06
25610;BME280;13479;49.044;8.716;2023-03-15T05:41:48;99212.63;;;0.19;89.18
25610;BME280;13479;49.044;8.716;2023-03-15T05:44:13;99222.88;;;0.24;88.90
25610;BME280;13479;49.044;8.716;2023-03-15T05:46:38;99237.72;;;0.23;88.88
25610;BME280;13479;49.044;8.716;2023-03-15T05:49:04;99241.13;;;0.25;88.92
25610;BME280;13479;49.044;8.716;2023-03-15T05:51:29;99244.38;;;0.30;88.71
25610;BME280;13479;49.044;8.716;2023-03-15T05:53:54;99229.25;;;0.39;88.83
25610;BME280;13479;49.044;8.716;2023-03-15T05:56:19;99220.31;;;0.44;89.17
25610;BME280;13479;49.044;8.716;2023-03-15T05:58:45;99219.22;;;0.50;88.97
25610;BME280;13479;49.044;8.716;2023-03-15T06:01:10;99208.19;;;0.64;89.04
25610;BME280;13479;49.044;8.716;2023-03-15T06:03:35;99219.88;;;0.76;89.30
25610;BME280;13479;49.044;8.716;2023-03-15T06:06:01;99223.84;;;0.85;88.74
25610;BME280;13479;49.044;8.716;2023-03-15T06:08:27;99213.72;;;0.98;89.14
25610;BME280;13479;49.044;8.716;2023-03-15T06:10:52;99216.69;;;1.09;89.22
25610;BME280;13479;49.044;8.716;2023-03-15T06:13:18;99223.00;;;1.24;89.16
25610;BME280;13479;49.044;8.716;2023-03-15T06:15:46;99239.16;;;1.34;89.19
25610;BME280;13479;49.044;8.716;2023-03-15T06:18:11;99238.53;;;1.48;89.04
25610;BME280;13479;49.044;8.716;2023-03-15T06:20:38;99252.75;;;2.19;89.02
25610;BME280;13479;49.044;8.716;2023-03-15T06:23:03;99263.22;;;3.42;89.02
25610;BME280;13479;49.044;8.716;2023-03-15T06:25:29;99267.47;;;4.56;89.58
25610;BME280;13479;49.044;8.716;2023-03-15T06:27:54;99266.34;;;5.65;88.38
25610;BME280;13479;49.044;8.716;2023-03-15T06:30:20;99278.19;;;6.01;87.41
25610;BME280;13479;49.044;8.716;2023-03-15T06:32:45;99235.44;;;5.81;86.99
25610;BME280;13479;49.044;8.716;2023-03-15T06:35:10;99227.78;;;5.64;86.29
25610;BME280;13479;49.044;8.716;2023-03-15T06:37:36;99250.63;;;5.78;83.23
25610;BME280;13479;49.044;8.716;2023-03-15T06:40:03;99203.63;;;6.13;82.33
25610;BME280;13479;49.044;8.716;2023-03-15T06:42:31;99196.19;;;6.99;79.71
25610;BME280;13479;49.044;8.716;2023-03-15T06:44:56;99179.00;;;8.18;78.23
25610;BME280;13479;49.044;8.716;2023-03-15T06:47:22;99214.34;;;9.58;73.04
25610;BME280;13479;49.044;8.716;2023-03-15T06:49:48;99155.41;;;11.06;68.54
25610;BME280;13479;49.044;8.716;2023-03-15T06:54:46;99050.78;;;12.93;57.34
25610;BME280;13479;49.044;8.716;2023-03-15T06:57:11;99015.66;;;13.08;55.81
25610;BME280;13479;49.044;8.716;2023-03-15T06:59:36;99005.47;;;13.67;54.47
25610;BME280;13479;49.044;8.716;2023-03-15T07:02:02;99024.53;;;13.72;49.81
25610;BME280;13479;49.044;8.716;2023-03-15T07:04:27;98991.41;;;12.73;51.15
25610;BME280;13479;49.044;8.716;2023-03-15T07:06:52;98991.63;;;12.14;52.16
25610;BME280;13479;49.044;8.716;2023-03-15T07:09:18;99015.53;;;12.72;50.91
25610;BME280;13479;49.044;8.716;2023-03-15T07:11:43;99002.84;;;13.57;48.54
25610;BME280;13479;49.044;8.716;2023-03-15T07:14:08;99019.78;;;14.81;47.14
25610;BME280;13479;49.044;8.716;2023-03-15T07:16:34;99021.44;;;15.85;43.39
25610;BME280;13479;49.044;8.716;2023-03-15T07:19:00;99032.81;;;16.93;43.24
25610;BME280;13479;49.044;8.716;2023-03-15T07:21:26;99049.81;;;17.80;39.36
25610;BME280;13479;49.044;8.716;2023-03-15T07:23:51;99046.78;;;18.67;38.62
25610;BME280;13479;49.044;8.716;2023-03-15T07:26:16;99069.47;;;19.40;35.72
25610;BME280;13479;49.044;8.716;2023-03-15T07:28:42;99085.72;;;20.27;34.73
25610;BME280;13479;49.044;8.716;2023-03-15T07:31:09;99097.41;;;20.84;32.10
25610;BME280;13479;49.044;8.716;2023-03-15T07:33:35;99118.94;;;21.48;29.99
25610;BME280;13479;49.044;8.716;2023-03-15T07:36:01;99129.78;;;21.54;30.33
25610;BME280;13479;49.044;8.716;2023-03-15T07:38:28;99138.03;;;20.54;29.08
25610;BME280;13479;49.044;8.716;2023-03-15T07:40:54;99144.84;;;19.70;29.82
25610;BME280;13479;49.044;8.716;2023-03-15T07:43:20;99138.63;;;19.39;30.24
25610;BME280;13479;49.044;8.716;2023-03-15T07:45:45;99147.38;;;19.41;31.14
25610;BME280;13479;49.044;8.716;2023-03-15T07:48:11;99157.19;;;19.34;29.66
25610;BME280;13479;49.044;8.716;2023-03-15T07:50:36;99152.47;;;18.68;32.22
25610;BME280;13479;49.044;8.716;2023-03-15T07:53:03;99145.63;;;17.87;32.86
25610;BME280;13479;49.044;8.716;2023-03-15T07:55:30;99147.09;;;17.19;33.67
25610;BME280;13479;49.044;8.716;2023-03-15T07:57:55;99128.84;;;17.14;34.45
25610;BME280;13479;49.044;8.716;2023-03-15T08:00:21;99122.34;;;17.80;33.08
25610;BME280;13479;49.044;8.716;2023-03-15T08:02:47;99134.06;;;17.87;31.71
25610;BME280;13479;49.044;8.716;2023-03-15T08:05:12;99133.16;;;18.03;31.85
25610;BME280;13479;49.044;8.716;2023-03-15T08:07:37;99123.25;;;18.27;33.49
25610;BME280;13479;49.044;8.716;2023-03-15T08:10:03;99144.47;;;18.36;30.84
25610;BME280;13479;49.044;8.716;2023-03-15T08:12:30;99148.31;;;18.19;29.94
25610;BME280;13479;49.044;8.716;2023-03-15T08:14:55;99140.34;;;18.02;31.48
25610;BME280;13479;49.044;8.716;2023-03-15T08:17:20;99153.16;;;18.24;31.33
25610;BME280;13479;49.044;8.716;2023-03-15T08:19:46;99150.09;;;18.03;30.91
25610;BME280;13479;49.044;8.716;2023-03-15T08:22:11;99160.53;;;17.58;30.66
25610;BME280;13479;49.044;8.716;2023-03-15T08:24:36;99151.56;;;17.35;31.78
25610;BME280;13479;49.044;8.716;2023-03-15T08:27:02;99159.59;;;17.43;31.99
25610;BME280;13479;49.044;8.716;2023-03-15T08:29:29;99167.16;;;17.79;30.68
25610;BME280;13479;49.044;8.716;2023-03-15T08:31:54;99168.88;;;17.72;31.70
25610;BME280;13479;49.044;8.716;2023-03-15T08:34:20;99179.69;;;16.99;31.18
25610;BME280;13479;49.044;8.716;2023-03-15T08:36:46;99170.59;;;16.17;32.61
25610;BME280;13479;49.044;8.716;2023-03-15T08:39:12;99159.34;;;16.05;32.40
25610;BME280;13479;49.044;8.716;2023-03-15T08:41:37;99155.28;;;15.93;32.95
25610;BME280;13479;49.044;8.716;2023-03-15T08:44:02;99157.50;;;16.06;32.34
25610;BME280;13479;49.044;8.716;2023-03-15T08:46:28;99139.97;;;16.45;32.87
25610;BME280;13479;49.044;8.716;2023-03-15T08:48:53;99140.72;;;17.20;32.03
25610;BME280;13479;49.044;8.716;2023-03-15T08:51:18;99155.44;;;17.32;29.61
25610;BME280;13479;49.044;8.716;2023-03-15T08:53:45;99167.44;;;16.80;30.99
25610;BME280;13479;49.044;8.716;2023-03-15T08:56:11;99189.16;;;16.27;31.60
25610;BME280;13479;49.044;8.716;2023-03-15T08:58:36;99183.44;;;16.05;31.40
25610;BME280;13479;49.044;8.716;2023-03-15T09:01:02;99186.16;;;16.30;30.86
25610;BME280;13479;49.044;8.716;2023-03-15T09:03:29;99190.06;;;15.85;30.78
25610;BME280;13479;49.044;8.716;2023-03-15T09:05:57;99183.47;;;15.63;31.98
25610;BME280;13479;49.044;8.716;2023-03-15T09:08:24;99170.88;;;15.55;32.17
25610;BME280;13479;49.044;8.716;2023-03-15T09:10:56;99171.34;;;15.85;31.16
25610;BME280;13479;49.044;8.716;2023-03-15T09:13:22;99190.31;;;15.65;31.75
25610;BME280;13479;49.044;8.716;2023-03-15T09:15:54;99189.06;;;15.17;31.65
25610;BME280;13479;49.044;8.716;2023-03-15T09:18:20;99176.06;;;14.69;32.82
25610;BME280;13479;49.044;8.716;2023-03-15T09:20:45;99190.22;;;14.15;32.06
25610;BME280;13479;49.044;8.716;2023-03-15T09:23:11;99178.22;;;13.55;32.89
25610;BME280;13479;49.044;8.716;2023-03-15T09:25:37;99166.59;;;13.09;34.29
25610;BME280;13479;49.044;8.716;2023-03-15T09:28:03;99153.91;;;13.58;35.42
25610;BME280;13479;49.044;8.716;2023-03-15T09:30:29;99141.25;;;14.25;33.89
25610;BME280;13479;49.044;8.716;2023-03-15T09:32:55;99132.03;;;15.08;32.83
25610;BME280;13479;49.044;8.716;2023-03-15T09:35:20;99135.91;;;16.08;31.40
25610;BME280;13479;49.044;8.716;2023-03-15T09:37:46;99147.59;;;17.62;30.11
25610;BME280;13479;49.044;8.716;2023-03-15T09:42:56;99182.78;;;19.00;28.19
25610;BME280;13479;49.044;8.716;2023-03-15T09:48:23;99196.22;;;16.86;28.97
25610;BME280;13479;49.044;8.716;2023-03-15T09:50:54;99216.22;;;15.99;30.15
25610;BME280;13479;49.044;8.716;2023-03-15T09:53:30;99193.19;;;15.72;31.71
25610;BME280;13479;49.044;8.716;2023-03-15T09:55:58;99189.38;;;15.83;30.38
25610;BME280;13479;49.044;8.716;2023-03-15T09:58:25;99179.81;;;16.40;30.51
25610;BME280;13479;49.044;8.716;2023-03-15T10:00:59;99181.97;;;16.28;30.11
25610;BME280;13479;49.044;8.716;2023-03-15T10:03:33;99191.63;;;15.61;31.21
25610;BME280;13479;49.044;8.716;2023-03-15T10:06:07;99192.47;;;15.62;31.25
25610;BME280;13479;49.044;8.716;2023-03-15T10:08:36;99181.59;;;15.55;30.73
25610;BME280;13479;49.044;8.716;2023-03-15T10:11:14;99181.75;;;15.27;31.20
25610;BME280;13479;49.044;8.716;2023-03-15T10:13:45;99182.75;;;14.73;31.22
25610;BME280;13479;49.044;8.716;2023-03-15T10:16:30;99180.47;;;14.06;31.71
25610;BME280;13479;49.044;8.716;2023-03-15T10:19:24;99181.91;;;13.35;32.76
25610;BME280;13479;49.044;8.716;2023-03-15T10:27:27;99177.34;;;12.30;37.21
25610;BME280;13479;49.044;8.716;2023-03-15T10:29:57;99174.13;;;12.17;37.46
25610;BME280;13479;49.044;8.716;2023-03-15T10:32:30;99174.66;;;12.11;36.96
25610;BME280;13479;49.044;8.716;2023-03-15T10:34:59;99161.47;;;11.99;36.33
25610;BME280;13479;49.044;8.716;2023-03-15T10:37:25;99154.00;;;11.73;36.69
25610;BME280;13479;49.044;8.716;2023-03-15T10:39:55;99157.53;;;11.43;36.33
25610;BME280;13479;49.044;8.716;2023-03-15T10:42:30;99150.66;;;11.00;37.55
25610;BME280;13479;49.044;8.716;2023-03-15T10:44:57;99142.66;;;10.69;39.38
25610;BME280;13479;49.044;8.716;2023-03-15T10:47:24;99155.13;;;10.57;40.29
25610;BME280;13479;49.044;8.716;2023-03-15T10:49:55;99151.88;;;10.20;40.94
25610;BME280;13479;49.044;8.716;2023-03-15T10:52:31;99152.22;;;9.95;41.21
25610;BME280;13479;49.044;8.716;2023-03-15T10:55:01;99152.38;;;9.82;42.45
25610;BME280;13479;49.044;8.716;2023-03-15T10:57:34;99155.78;;;9.72;42.95
25610;BME280;13479;49.044;8.716;2023-03-15T11:00:02;99147.38;;;9.67;42.40
25610;BME280;13479;49.044;8.716;2023-03-15T11:02:48;99159.69;;;9.46;43.12
25610;BME280;13479;49.044;8.716;2023-03-15T11:05:16;99146.09;;;9.16;44.14
25610;BME280;13479;49.044;8.716;2023-03-15T11:07:56;99141.84;;;9.02;44.70
25610;BME280;13479;49.044;8.716;2023-03-15T11:10:24;99174.66;;;8.77;46.88
25610;BME280;13479;49.044;8.716;2023-03-15T11:12:50;99195.56;;;8.57;48.38
25610;BME280;13479;49.044;8.716;2023-03-15T11:15:32;99224.28;;;8.13;51.41
25610;BME280;13479;49.044;8.716;2023-03-15T11:17:58;99255.06;;;7.90;53.86
25610;BME280;13479;49.044;8.716;2023-03-15T11:20:38;99289.66;;;7.61;56.25
25610;BME280;13479;49.044;8.716;2023-03-15T11:23:27;99317.88;;;7.22;58.29
25610;BME280;13479;49.044;8.716;2023-03-15T11:25:54;99337.84;;;6.86;59.26
25610;BME280;13479;49.044;8.716;2023-03-15T11:28:23;99351.03;;;6.58;60.37
25610;BME280;13479;49.044;8.716;2023-03-15T11:30:49;99346.28;;;6.36;62.19
25610;BME280;13479;49.044;8.716;2023-03-15T11:33:26;99348.56;;;6.28;63.18
25610;BME280;13479;49.044;8.716;2023-03-15T11:35:58;99340.47;;;6.16;64.61
25610;BME280;13479;49.044;8.716;2023-03-15T11:38:41;99330.34;;;6.10;64.82
25610;BME280;13479;49.044;8.716;2023-03-15T11:41:19;99318.69;;;6.00;65.38
25610;BME280;13479;49.044;8.716;2023-03-15T11:43:58;99294.34;;;5.95;66.73
25610;BME280;13479;49.044;8.716;2023-03-15T11:46:31;99272.16;;;5.84;67.02
25610;BME280;13479;49.044;8.716;2023-03-15T11:49:14;99257.56;;;5.79;67.48
25610;BME280;13479;49.044;8.716;2023-03-15T11:51:41;99238.09;;;5.81;67.41
25610;BME280;13479;49.044;8.716;2023-03-15T11:54:17;99208.34;;;5.94;67.51
25610;BME280;13479;49.044;8.716;2023-03-15T11:56:47;99181.78;;;5.97;67.60
25610;BME280;13479;49.044;8.716;2023-03-15T11:59:19;99165.47;;;6.19;67.20
25610;BME280;13479;49.044;8.716;2023-03-15T12:01:54;99157.47;;;6.33;67.62
25610;BME280;13479;49.044;8.716;2023-03-15T12:06:49;99166.63;;;6.81;65.88
25610;BME280;13479;49.044;8.716;2023-03-15T12:12:33;99195.94;;;7.54;63.84
25610;BME280;13479;49.044;8.716;2023-03-15T12:17:45;99259.69;;;8.24;61.51
25610;BME280;13479;49.044;8.716;2023-03-15T12:20:33;99260.97;;;8.55;60.30
25610;BME280;13479;49.044;8.716;2023-03-15T12:25:55;99244.53;;;9.10;59.34
25610;BME280;13479;49.044;8.716;2023-03-15T12:28:25;99248.91;;;9.45;58.59
25610;BME280;13479;49.044;8.716;2023-03-15T12:30:55;99245.69;;;9.76;56.21
25610;BME280;13479;49.044;8.716;2023-03-15T12:33:24;99227.19;;;9.97;55.47
25610;BME280;13479;49.044;8.716;2023-03-15T12:35:50;99225.03;;;10.02;54.36
25610;BME280;13479;49.044;8.716;2023-03-15T12:38:23;99224.06;;;9.92;54.42
25610;BME280;13479;49.044;8.716;2023-03-15T12:40:56;99231.53;;;9.86;53.25
25610;BME280;13479;49.044;8.716;2023-03-15T12:43:44;99238.31;;;9.91;53.24
25610;BME280;13479;49.044;8.716;2023-03-15T12:49:26;99205.91;;;10.19;54.31
25610;BME280;13479;49.044;8.716;2023-03-15T12:51:58;99228.06;;;10.53;52.89
25610;BME280;13479;49.044;8.716;2023-03-15T12:54:29;99217.25;;;10.65;53.42
25610;BME280;13479;49.044;8.716;2023-03-15T12:57:01;99230.31;;;10.78;51.45
25610;BME280;13479;49.044;8.716;2023-03-15T12:59:35;99222.56;;;10.65;51.46
25610;BME280;13479;49.044;8.716;2023-03-15T13:02:30;99228.06;;;10.53;51.03
25610;BME280;13479;49.044;8.716;2023-03-15T13:04:59;99225.69;;;10.27;51.29
25610;BME280;13479;49.044;8.716;2023-03-15T13:07:33;99224.78;;;10.05;51.34
25610;BME280;13479;49.044;8.716;2023-03-15T13:12:52;99177.13;;;9.60;53.10
25610;BME280;13479;49.044;8.716;2023-03-15T13:15:28;99156.91;;;9.24;54.02
25610;BME280;13479;49.044;8.716;2023-03-15T13:18:02;99120.19;;;9.08;55.54
25610;BME280;13479;49.044;8.716;2023-03-15T13:23:13;99109.09;;;8.80;56.40
25610;BME280;13479;49.044;8.716;2023-03-15T13:26:20;99095.25;;;8.77;56.70
25610;BME280;13479;49.044;8.716;2023-03-15T13:28:35;99089.69;;;8.57;57.82
25610;BME280;13479;49.044;8.716;2023-03-15T13:31:10;99095.91;;;8.45;57.74
25610;BME280;13479;49.044;8.716;2023-03-15T13:33:38;99088.09;;;8.43;58.53
25610;BME280;13479;49.044;8.716;2023-03-15T13:36:10;99090.84;;;8.42;57.92
25610;BME280;13479;49.044;8.716;2023-03-15T13:41:04;99085.00;;;8.49;58.61
25610;BME280;13479;49.044;8.716;2023-03-15T13:43:35;99090.59;;;8.45;58.30
25610;BME280;13479;49.044;8.716;2023-03-15T13:46:01;99084.81;;;8.40;58.66
25610;BME280;13479;49.044;8.716;2023-03-15T13:48:28;99083.81;;;8.54;58.58
25610;BME280;13479;49.044;8.716;2023-03-15T13:51:02;99076.47;;;8.69;58.59
25610;BME280;13479;49.044;8.716;2023-03-15T13:53:30;99079.13;;;9.03;58.48
25610;BME280;13479;49.044;8.716;2023-03-15T13:55:57;99075.72;;;9.46;58.65
25610;BME280;13479;49.044;8.716;2023-03-15T13:58:22;99154.78;;;9.85;56.50
25610;BME280;13479;49.044;8.716;2023-03-15T14:00:55;99182.06;;;10.08;56.62
25610;BME280;13479;49.044;8.716;2023-03-15T14:03:20;99205.66;;;10.23;55.97
25610;BME280;13479;49.044;8.716;2023-03-15T14:05:49;99216.75;;;10.28;54.13
25610;BME280;13479;49.044;8.716;2023-03-15T14:08:25;99204.25;;;10.18;52.87
25610;BME280;13479;49.044;8.716;2023-03-15T14:11:16;99213.44;;;10.03;52.50
25610;BME280;13479;49.044;8.716;2023-03-15T14:13:50;99192.06;;;9.72;54.28
25610;BME280;13479;49.044;8.716;2023-03-15T14:16:30;99161.22;;;9.60;55.01
25610;BME280;13479;49.044;8.716;2023-03-15T14:19:22;99183.75;;;9.65;53.38
25610;BME280;13479;49.044;8.716;2023-03-15T14:21:55;99186.63;;;9.62;54.00
25610;BME280;13479;49.044;8.716;2023-03-15T14:24:42;99201.81;;;9.60;53.04
25610;BME280;13479;49.044;8.716;2023-03-15T14:27:17;99185.31;;;9.56;54.24
25610;BME280;13479;49.044;8.716;2023-03-15T14:29:48;99178.34;;;9.44;53.82
25610;BME280;13479;49.044;8.716;2023-03-15T14:32:26;99190.63;;;9.45;54.01
25610;BME280;13479;49.044;8.716;2023-03-15T14:35:02;99198.94;;;9.40;53.30
25610;BME280;13479;49.044;8.716;2023-03-15T14:42:49;99206.66;;;9.32;53.53
25610;BME280;13479;49.044;8.716;2023-03-15T14:45:17;99199.16;;;9.37;53.59
25610;BME280;13479;49.044;8.716;2023-03-15T14:47:46;99205.69;;;9.45;53.43
25610;BME280;13479;49.044;8.716;2023-03-15T14:50:14;99213.00;;;9.52;53.45
25610;BME280;13479;49.044;8.716;2023-03-15T14:52:43;99224.84;;;9.60;52.42
25610;BME280;13479;49.044;8.716;2023-03-15T14:55:14;99227.59;;;9.69;52.21
25610;BME280;13479;49.044;8.716;2023-03-15T14:57:40;99237.72;;;9.87;51.84
25610;BME280;13479;49.044;8.716;2023-03-15T15:00:05;99233.72;;;9.93;51.86
25610;BME280;13479;49.044;8.716;2023-03-15T15:02:34;99237.31;;;10.03;50.97
25610;BME280;13479;49.044;8.716;2023-03-15T15:05:01;99234.16;;;10.09;50.66
25610;BME280;13479;49.044;8.716;2023-03-15T15:07:27;99235.59;;;10.13;50.67
25610;BME280;13479;49.044;8.716;2023-03-15T15:09:52;99236.81;;;10.09;50.49
25610;BME280;13479;49.044;8.716;2023-03-15T15:12:17;99204.53;;;10.04;52.31
25610;BME280;13479;49.044;8.716;2023-03-15T15:14:43;99162.34;;;9.89;53.76
25610;BME280;13479;49.044;8.716;2023-03-15T15:17:09;99145.75;;;9.76;54.58
25610;BME280;13479;49.044;8.716;2023-03-15T15:19:35;99131.69;;;9.64;55.72
25610;BME280;13479;49.044;8.716;2023-03-15T15:22:00;99118.69;;;9.50;56.33
25610;BME280;13479;49.044;8.716;2023-03-15T15:24:26;99122.09;;;9.29;56.61
25610;BME280;13479;49.044;8.716;2023-03-15T15:26:51;99112.25;;;9.08;57.09
25610;BME280;13479;49.044;8.716;2023-03-15T15:29:17;99108.25;;;8.80;58.05
25610;BME280;13479;49.044;8.716;2023-03-15T15:31:43;99112.69;;;8.68;58.71
25610;BME280;13479;49.044;8.716;2023-03-15T15:34:10;99108.22;;;8.57;59.47
25610;BME280;13479;49.044;8.716;2023-03-15T15:36:41;99113.47;;;8.46;59.89
25610;BME280;13479;49.044;8.716;2023-03-15T15:39:21;99114.38;;;8.33;60.50
25610;BME280;13479;49.044;8.716;2023-03-15T15:41:47;99111.72;;;8.22;60.63
25610;BME280;13479;49.044;8.716;2023-03-15T15:44:17;99118.69;;;8.23;61.24
25610;BME280;13479;49.044;8.716;2023-03-15T15:46:43;99118.22;;;8.29;61.46
25610;BME280;13479;49.044;8.716;2023-03-15T15:49:08;99131.72;;;8.38;61.70
25610;BME280;13479;49.044;8.716;2023-03-15T15:51:41;99135.81;;;8.42;61.76
25610;BME280;13479;49.044;8.716;2023-03-15T15:54:23;99156.25;;;8.40;61.36
25610;BME280;13479;49.044;8.716;2023-03-15T15:56:55;99146.66;;;8.39;61.73
25610;BME280;13479;49.044;8.716;2023-03-15T15:59:20;99149.72;;;8.32;61.74
25610;BME280;13479;49.044;8.716;2023-03-15T16:01:50;99142.41;;;8.36;61.94
25610;BME280;13479;49.044;8.716;2023-03-15T16:04:16;99162.38;;;8.40;61.43
25610;BME280;13479;49.044;8.716;2023-03-15T16:06:45;99159.78;;;8.16;62.02
25610;BME280;13479;49.044;8.716;2023-03-15T16:09:12;99151.31;;;8.11;62.12
25610;BME280;13479;49.044;8.716;2023-03-15T16:11:37;99156.34;;;8.02;62.00
25610;BME280;13479;49.044;8.716;2023-03-15T16:14:04;99142.63;;;7.60;63.14
25610;BME280;13479;49.044;8.716;2023-03-15T16:16:30;99140.03;;;7.47;63.84
25610;BME280;13479;49.044;8.716;2023-03-15T16:18:58;99151.16;;;7.39;64.81
25610;BME280;13479;49.044;8.716;2023-03-15T16:21:47;99154.88;;;7.24;65.41
25610;BME280;13479;49.044;8.716;2023-03-15T16:24:20;99167.66;;;7.30;65.78
25610;BME280;13479;49.044;8.716;2023-03-15T16:26:48;99163.00;;;7.21;65.68
25610;BME280;13479;49.044;8.716;2023-03-15T16:29:19;99186.44;;;7.51;64.55
25610;BME280;13479;49.044;8.716;2023-03-15T16:31:46;99192.81;;;7.23;65.21
25610;BME280;13479;49.044;8.716;2023-03-15T16:34:13;99170.50;;;7.27;65.51
25610;BME280;13479;49.044;8.716;2023-03-15T16:36:40;99182.75;;;7.28;65.66
25610;BME280;13479;49.044;8.716;2023-03-15T16:39:13;99176.53;;;7.16;65.43
25610;BME280;13479;49.044;8.716;2023-03-15T16:41:39;99181.41;;;6.97;65.99
25610;BME280;13479;49.044;8.716;2023-03-15T16:44:15;99172.31;;;6.75;66.87
25610;BME280;13479;49.044;8.716;2023-03-15T16:46:41;99182.66;;;6.78;67.12
25610;BME280;13479;49.044;8.716;2023-03-15T16:49:07;99170.81;;;6.58;67.33
25610;BME280;13479;49.044;8.716;2023-03-15T16:51:33;99175.75;;;6.49;67.80
25610;BME280;13479;49.044;8.716;2023-03-15T16:53:58;99196.84;;;6.49;67.53
25610;BME280;13479;49.044;8.716;2023-03-15T16:56:28;99196.09;;;6.47;68.01
25610;BME280;13479;49.044;8.716;2023-03-15T16:58:54;99209.66;;;6.56;67.49
25610;BME280;13479;49.044;8.716;2023-03-15T17:01:19;99220.72;;;6.61;66.86
25610;BME280;13479;49.044;8.716;2023-03-15T17:03:44;99252.19;;;6.64;66.66
25610;BME280;13479;49.044;8.716;2023-03-15T17:06:16;99241.91;;;6.46;67.20
25610;BME280;13479;49.044;8.716;2023-03-15T17:08:48;99227.09;;;6.31;67.92
25610;BME280;13479;49.044;8.716;2023-03-15T17:11:14;99211.44;;;6.28;68.30
25610;BME280;13479;49.044;8.716;2023-03-15T17:13:40;99216.19;;;6.23;68.97
25610;BME280;13479;49.044;8.716;2023-03-15T17:16:12;99221.78;;;6.18;69.12
25610;BME280;13479;49.044;8.716;2023-03-15T17:18:40;99224.09;;;6.23;68.84
25610;BME280;13479;49.044;8.716;2023-03-15T17:21:05;99225.81;;;6.24;69.32
25610;BME280;13479;49.044;8.716;2023-03-15T17:23:31;99251.34;;;6.36;68.70
25610;BME280;13479;49.044;8.716;2023-03-15T17:25:56;99261.22;;;6.20;68.79
25610;BME280;13479;49.044;8.716;2023-03-15T17:28:22;99244.97;;;6.26;68.98
25610;BME280;13479;49.044;8.716;2023-03-15T17:30:47;99245.25;;;6.36;69.06
25610;BME280;13479;49.044;8.716;2023-03-15T17:33:12;99249.75;;;6.33;68.63
25610;BME280;13479;49.044;8.716;2023-03-15T17:35:51;99254.69;;;6.25;68.94
25610;BME280;13479;49.044;8.716;2023-03-15T17:38:25;99247.03;;;6.08;69.73
25610;BME280;13479;49.044;8.716;2023-03-15T17:40:52;99243.84;;;6.02;70.19
25610;BME280;13479;49.044;8.716;2023-03-15T17:43:18;99253.44;;;6.03;70.37
25610;BME280;13479;49.044;8.716;2023-03-15T17:45:44;99256.91;;;6.04;70.10
25610;BME280;13479;49.044;8.716;2023-03-15T17:48:09;99259.91;;;6.12;70.82
25610;BME280;13479;49.044;8.716;2023-03-15T17:50:35;99274.22;;;6.08;70.67
25610;BME280;13479;49.044;8.716;2023-03-15T17:53:10;99279.31;;;6.11;70.37
25610;BME280;13479;49.044;8.716;2023-03-15T17:55:38;99280.25;;;6.10;70.31
25610;BME280;13479;49.044;8.716;2023-03-15T17:58:15;99292.53;;;6.24;69.98
25610;BME280;13479;49.044;8.716;2023-03-15T18:00:41;99303.84;;;6.26;70.16
25610;BME280;13479;49.044;8.716;2023-03-15T18:03:10;99301.09;;;6.28;70.60
25610;BME280;13479;49.044;8.716;2023-03-15T18:05:36;99311.66;;;6.28;70.32
25610;BME280;13479;49.044;8.716;2023-03-15T18:08:01;99304.38;;;6.31;70.41
25610;BME280;13479;49.044;8.716;2023-03-15T18:12:55;99295.38;;;6.21;70.77
25610;BME280;13479;49.044;8.716;2023-03-15T18:15:21;99298.94;;;6.20;71.61
25610;BME280;13479;49.044;8.716;2023-03-15T18:17:47;99302.44;;;6.21;72.34
25610;BME280;13479;49.044;8.716;2023-03-15T18:20:13;99309.22;;;6.25;72.85
25610;BME280;13479;49.044;8.716;2023-03-15T18:22:39;99323.44;;;6.22;72.57
25610;BME280;13479;49.044;8.716;2023-03-15T18:25:06;99320.91;;;6.21;73.06
25610;BME280;13479;49.044;8.716;2023-03-15T18:27:32;99332.91;;;6.39;73.07
25610;BME280;13479;49.044;8.716;2023-03-15T18:29:58;99352.53;;;6.35;72.60
25610;BME280;13479;49.044;8.716;2023-03-15T18:32:25;99346.97;;;6.25;73.04
25610;BME280;13479;49.044;8.716;2023-03-15T18:34:52;99337.19;;;6.27;73.79
25610;BME280;13479;49.044;8.716;2023-03-15T18:37:17;99340.75;;;6.26;74.12
25610;BME280;13479;49.044;8.716;2023-03-15T18:39:42;99342.91;;;6.34;74.40
25610;BME280;13479;49.044;8.716;2023-03-15T18:42:09;99354.59;;;6.30;73.21
25610;BME280;13479;49.044;8.716;2023-03-15T18:44:34;99358.94;;;6.16;73.59
25610;BME280;13479;49.044;8.716;2023-03-15T18:47:00;99352.94;;;6.00;74.01
25610;BME280;13479;49.044;8.716;2023-03-15T18:49:26;99343.47;;;5.81;74.63
25610;BME280;13479;49.044;8.716;2023-03-15T18:51:51;99351.59;;;5.64;75.20
25610;BME280;13479;49.044;8.716;2023-03-15T18:54:20;99350.72;;;5.49;75.74
25610;BME280;13479;49.044;8.716;2023-03-15T18:56:48;99350.84;;;5.31;76.69
25610;BME280;13479;49.044;8.716;2023-03-15T18:59:13;99363.53;;;5.24;77.46
25610;BME280;13479;49.044;8.716;2023-03-15T19:01:39;99377.44;;;5.12;77.73